sensor_id;sensor_type;location;lat;lon;timestamp;P1;durP1;ratioP1;P2;durP2;ratioP2
50585;SDS011;36542;51.700;8.846;2023-02-04T00:02:17;34.37;;;7.03;;
50585;SDS011;36542;51.700;8.846;2023-02-04T00:04:42;43.73;;;8.00;;
50585;SDS011;36542;51.700;8.846;2023-02-04T00:07:08;46.83;;;8.03;;
50585;SDS011;36542;51.700;8.846;2023-02-04T00:09:33;41.03;;;7.47;;
50585;SDS011;36542;51.700;8.846;2023-02-04T00:11:59;40.50;;;7.43;;
50585;SDS011;36542;51.700;8.846;2023-02-04T00:14:24;42.20;;;7.13;;
50585;SDS011;36542;51.700;8.846;2023-02-04T00:16:50;39.17;;;7.07;;
50585;SDS011;36542;51.700;8.846;2023-02-04T00:19:15;45.03;;;7.67;;
50585;SDS011;36542;51.700;8.846;2023-02-04T00:21:41;45.57;;;8.40;;
50585;SDS011;36542;51.700;8.846;2023-02-04T00:24:06;41.10;;;7.93;;
50585;SDS011;36542;51.700;8.846;2023-02-04T00:26:32;34.93;;;8.87;;
50585;SDS011;36542;51.700;8.846;2023-02-04T00:28:57;43.03;;;7.90;;
50585;SDS011;36542;51.700;8.846;2023-02-04T00:31:23;38.90;;;9.07;;
50585;SDS011;36542;51.700;8.846;2023-02-04T00:33:49;42.20;;;9.53;;
50585;SDS011;36542;51.700;8.846;2023-02-04T00:36:14;43.03;;;8.67;;
50585;SDS011;36542;51.700;8.846;2023-02-04T00:38:40;42.17;;;7.97;;
50585;SDS011;36542;51.700;8.846;2023-02-04T00:41:05;52.10;;;8.43;;
50585;SDS011;36542;51.700;8.846;2023-02-04T00:43:31;31.53;;;7.57;;
50585;SDS011;36542;51.700;8.846;2023-02-04T00:45:56;29.33;;;7.67;;
50585;SDS011;36542;51.700;8.846;2023-02-04T00:48:22;42.23;;;7.97;;
50585;SDS011;36542;51.700;8.846;2023-02-04T00:50:47;39.97;;;8.03;;
50585;SDS011;36542;51.700;8.846;2023-02-04T00:53:13;46.83;;;9.67;;
50585;SDS011;36542;51.700;8.846;2023-02-04T00:55:38;42.40;;;9.27;;
50585;SDS011;36542;51.700;8.846;2023-02-04T00:58:04;39.57;;;7.83;;
50585;SDS011;36542;51.700;8.846;2023-02-04T01:00:29;36.10;;;9.77;;
50585;SDS011;36542;51.700;8.846;2023-02-04T01:02:55;41.23;;;8.67;;
50585;SDS011;36542;51.700;8.846;2023-02-04T01:05:20;41.83;;;8.67;;
50585;SDS011;36542;51.700;8.846;2023-02-04T01:07:46;56.53;;;8.80;;
50585;SDS011;36542;51.700;8.846;2023-02-04T01:10:11;50.03;;;8.40;;
50585;SDS011;36542;51.700;8.846;2023-02-04T01:12:37;38.63;;;7.57;;
50585;SDS011;36542;51.700;8.846;2023-02-04T01:15:03;50.43;;;8.80;;
50585;SDS011;36542;51.700;8.846;2023-02-04T01:17:28;43.00;;;7.73;;
50585;SDS011;36542;51.700;8.846;2023-02-04T01:19:54;49.97;;;7.10;;
50585;SDS011;36542;51.700;8.846;2023-02-04T01:22:19;49.97;;;8.20;;
50585;SDS011;36542;51.700;8.846;2023-02-04T01:24:45;38.33;;;7.70;;
50585;SDS011;36542;51.700;8.846;2023-02-04T01:27:10;35.73;;;6.80;;
50585;SDS011;36542;51.700;8.846;2023-02-04T01:29:36;35.23;;;7.40;;
50585;SDS011;36542;51.700;8.846;2023-02-04T01:32:01;39.13;;;6.90;;
50585;SDS011;36542;51.700;8.846;2023-02-04T01:34:27;37.77;;;7.20;;
50585;SDS011;36542;51.700;8.846;2023-02-04T01:36:55;44.47;;;8.00;;
50585;SDS011;36542;51.700;8.846;2023-02-04T01:39:20;51.77;;;8.60;;
50585;SDS011;36542;51.700;8.846;2023-02-04T01:41:46;42.13;;;6.83;;
50585;SDS011;36542;51.700;8.846;2023-02-04T01:44:11;34.63;;;7.17;;
50585;SDS011;36542;51.700;8.846;2023-02-04T01:46:37;40.60;;;7.00;;
50585;SDS011;36542;51.700;8.846;2023-02-04T01:49:03;40.57;;;8.07;;
50585;SDS011;36542;51.700;8.846;2023-02-04T01:51:30;36.90;;;7.60;;
50585;SDS011;36542;51.700;8.846;2023-02-04T01:53:57;38.67;;;6.57;;
50585;SDS011;36542;51.700;8.846;2023-02-04T01:56:24;42.27;;;6.73;;
50585;SDS011;36542;51.700;8.846;2023-02-04T01:58:51;39.27;;;7.10;;
50585;SDS011;36542;51.700;8.846;2023-02-04T02:01:37;40.87;;;8.10;;
50585;SDS011;36542;51.700;8.846;2023-02-04T02:04:08;45.73;;;7.90;;
50585;SDS011;36542;51.700;8.846;2023-02-04T02:06:35;44.57;;;7.53;;
50585;SDS011;36542;51.700;8.846;2023-02-04T02:09:03;49.57;;;8.53;;
50585;SDS011;36542;51.700;8.846;2023-02-04T02:11:29;55.40;;;8.33;;
50585;SDS011;36542;51.700;8.846;2023-02-04T02:13:55;48.63;;;6.57;;
50585;SDS011;36542;51.700;8.846;2023-02-04T02:16:21;41.63;;;7.60;;
50585;SDS011;36542;51.700;8.846;2023-02-04T02:18:46;43.57;;;9.70;;
50585;SDS011;36542;51.700;8.846;2023-02-04T02:21:13;38.83;;;7.13;;
50585;SDS011;36542;51.700;8.846;2023-02-04T02:23:46;44.43;;;7.60;;
50585;SDS011;36542;51.700;8.846;2023-02-04T02:26:16;40.50;;;7.43;;
50585;SDS011;36542;51.700;8.846;2023-02-04T02:28:44;47.90;;;6.90;;
50585;SDS011;36542;51.700;8.846;2023-02-04T02:31:12;38.97;;;7.23;;
50585;SDS011;36542;51.700;8.846;2023-02-04T02:33:41;43.17;;;7.63;;
50585;SDS011;36542;51.700;8.846;2023-02-04T02:36:07;37.07;;;9.00;;
50585;SDS011;36542;51.700;8.846;2023-02-04T02:38:33;43.33;;;7.67;;
50585;SDS011;36542;51.700;8.846;2023-02-04T02:40:59;47.90;;;7.90;;
50585;SDS011;36542;51.700;8.846;2023-02-04T02:43:25;46.43;;;8.33;;
50585;SDS011;36542;51.700;8.846;2023-02-04T02:45:52;40.60;;;7.97;;
50585;SDS011;36542;51.700;8.846;2023-02-04T02:48:20;45.10;;;8.00;;
50585;SDS011;36542;51.700;8.846;2023-02-04T02:50:46;48.30;;;8.10;;
50585;SDS011;36542;51.700;8.846;2023-02-04T02:53:14;40.27;;;7.37;;
50585;SDS011;36542;51.700;8.846;2023-02-04T02:55:41;37.93;;;8.10;;
50585;SDS011;36542;51.700;8.846;2023-02-04T02:58:12;41.97;;;7.93;;
50585;SDS011;36542;51.700;8.846;2023-02-04T03:00:41;48.63;;;8.50;;
50585;SDS011;36542;51.700;8.846;2023-02-04T03:03:07;42.33;;;8.37;;
50585;SDS011;36542;51.700;8.846;2023-02-04T03:05:44;40.60;;;7.53;;
50585;SDS011;36542;51.700;8.846;2023-02-04T03:08:13;38.37;;;6.77;;
50585;SDS011;36542;51.700;8.846;2023-02-04T03:10:40;38.57;;;7.90;;
50585;SDS011;36542;51.700;8.846;2023-02-04T03:13:07;35.57;;;6.93;;
50585;SDS011;36542;51.700;8.846;2023-02-04T03:15:34;27.97;;;6.77;;
50585;SDS011;36542;51.700;8.846;2023-02-04T03:17:59;35.20;;;6.57;;
50585;SDS011;36542;51.700;8.846;2023-02-04T03:20:26;41.80;;;8.23;;
50585;SDS011;36542;51.700;8.846;2023-02-04T03:22:54;34.80;;;8.00;;
50585;SDS011;36542;51.700;8.846;2023-02-04T03:25:20;42.27;;;8.00;;
50585;SDS011;36542;51.700;8.846;2023-02-04T03:27:50;35.23;;;7.30;;
50585;SDS011;36542;51.700;8.846;2023-02-04T03:30:18;51.87;;;7.80;;
50585;SDS011;36542;51.700;8.846;2023-02-04T03:32:44;40.60;;;6.73;;
50585;SDS011;36542;51.700;8.846;2023-02-04T03:35:09;36.83;;;6.57;;
50585;SDS011;36542;51.700;8.846;2023-02-04T03:37:35;38.53;;;7.13;;
50585;SDS011;36542;51.700;8.846;2023-02-04T03:40:00;38.87;;;6.07;;
50585;SDS011;36542;51.700;8.846;2023-02-04T03:42:26;33.73;;;6.53;;
50585;SDS011;36542;51.700;8.846;2023-02-04T03:44:51;40.10;;;6.53;;
50585;SDS011;36542;51.700;8.846;2023-02-04T03:47:17;38.63;;;6.97;;
50585;SDS011;36542;51.700;8.846;2023-02-04T03:49:42;34.07;;;6.63;;
50585;SDS011;36542;51.700;8.846;2023-02-04T03:52:08;31.63;;;6.43;;
50585;SDS011;36542;51.700;8.846;2023-02-04T03:54:33;45.73;;;7.10;;
50585;SDS011;36542;51.700;8.846;2023-02-04T03:56:59;26.47;;;7.30;;
50585;SDS011;36542;51.700;8.846;2023-02-04T03:59:24;29.43;;;6.47;;
50585;SDS011;36542;51.700;8.846;2023-02-04T04:01:50;52.60;;;7.87;;
50585;SDS011;36542;51.700;8.846;2023-02-04T04:04:16;36.27;;;7.40;;
50585;SDS011;36542;51.700;8.846;2023-02-04T04:06:42;32.53;;;7.67;;
50585;SDS011;36542;51.700;8.846;2023-02-04T04:09:07;37.50;;;7.77;;
50585;SDS011;36542;51.700;8.846;2023-02-04T04:11:33;37.80;;;7.20;;
50585;SDS011;36542;51.700;8.846;2023-02-04T04:13:58;43.23;;;8.13;;
50585;SDS011;36542;51.700;8.846;2023-02-04T04:16:25;37.07;;;8.20;;
50585;SDS011;36542;51.700;8.846;2023-02-04T04:18:50;39.93;;;7.17;;
50585;SDS011;36542;51.700;8.846;2023-02-04T04:21:16;35.87;;;6.33;;
50585;SDS011;36542;51.700;8.846;2023-02-04T04:23:41;37.43;;;6.93;;
50585;SDS011;36542;51.700;8.846;2023-02-04T04:26:07;39.23;;;8.17;;
50585;SDS011;36542;51.700;8.846;2023-02-04T04:28:32;40.17;;;6.87;;
50585;SDS011;36542;51.700;8.846;2023-02-04T04:30:58;32.33;;;6.33;;
50585;SDS011;36542;51.700;8.846;2023-02-04T04:33:23;41.30;;;7.47;;
50585;SDS011;36542;51.700;8.846;2023-02-04T04:35:49;42.77;;;7.87;;
50585;SDS011;36542;51.700;8.846;2023-02-04T04:38:14;40.63;;;9.07;;
50585;SDS011;36542;51.700;8.846;2023-02-04T04:40:40;43.90;;;7.33;;
50585;SDS011;36542;51.700;8.846;2023-02-04T04:43:05;33.40;;;7.53;;
50585;SDS011;36542;51.700;8.846;2023-02-04T04:45:31;38.63;;;8.20;;
50585;SDS011;36542;51.700;8.846;2023-02-04T04:47:56;40.90;;;8.23;;
50585;SDS011;36542;51.700;8.846;2023-02-04T04:50:22;43.57;;;8.17;;
50585;SDS011;36542;51.700;8.846;2023-02-04T04:52:47;36.27;;;7.40;;
50585;SDS011;36542;51.700;8.846;2023-02-04T04:55:13;49.50;;;7.70;;
50585;SDS011;36542;51.700;8.846;2023-02-04T04:57:38;42.63;;;7.93;;
50585;SDS011;36542;51.700;8.846;2023-02-04T05:00:05;28.53;;;6.70;;
50585;SDS011;36542;51.700;8.846;2023-02-04T05:02:31;25.97;;;5.07;;
50585;SDS011;36542;51.700;8.846;2023-02-04T05:04:56;17.10;;;4.70;;
50585;SDS011;36542;51.700;8.846;2023-02-04T05:07:22;20.93;;;4.23;;
50585;SDS011;36542;51.700;8.846;2023-02-04T05:09:47;19.13;;;3.23;;
50585;SDS011;36542;51.700;8.846;2023-02-04T05:12:13;19.57;;;4.10;;
50585;SDS011;36542;51.700;8.846;2023-02-04T05:14:38;21.37;;;4.07;;
50585;SDS011;36542;51.700;8.846;2023-02-04T05:17:04;16.73;;;4.10;;
50585;SDS011;36542;51.700;8.846;2023-02-04T05:19:29;11.77;;;3.30;;
50585;SDS011;36542;51.700;8.846;2023-02-04T05:21:54;18.83;;;3.60;;
50585;SDS011;36542;51.700;8.846;2023-02-04T05:24:21;15.93;;;3.50;;
50585;SDS011;36542;51.700;8.846;2023-02-04T05:26:47;13.90;;;3.73;;
50585;SDS011;36542;51.700;8.846;2023-02-04T05:29:12;20.17;;;3.70;;
50585;SDS011;36542;51.700;8.846;2023-02-04T05:31:38;16.67;;;4.27;;
50585;SDS011;36542;51.700;8.846;2023-02-04T05:34:03;13.60;;;3.20;;
50585;SDS011;36542;51.700;8.846;2023-02-04T05:36:29;15.57;;;3.70;;
50585;SDS011;36542;51.700;8.846;2023-02-04T05:38:54;16.40;;;3.87;;
50585;SDS011;36542;51.700;8.846;2023-02-04T05:41:20;16.43;;;3.63;;
50585;SDS011;36542;51.700;8.846;2023-02-04T05:43:45;17.67;;;4.00;;
50585;SDS011;36542;51.700;8.846;2023-02-04T05:46:11;17.03;;;3.13;;
50585;SDS011;36542;51.700;8.846;2023-02-04T05:48:36;12.20;;;3.60;;
50585;SDS011;36542;51.700;8.846;2023-02-04T05:51:03;15.30;;;3.23;;
50585;SDS011;36542;51.700;8.846;2023-02-04T05:53:29;17.27;;;3.73;;
50585;SDS011;36542;51.700;8.846;2023-02-04T05:55:55;12.90;;;3.53;;
50585;SDS011;36542;51.700;8.846;2023-02-04T05:58:21;25.83;;;4.87;;
50585;SDS011;36542;51.700;8.846;2023-02-04T06:00:46;14.33;;;3.40;;
50585;SDS011;36542;51.700;8.846;2023-02-04T06:03:12;19.00;;;3.80;;
50585;SDS011;36542;51.700;8.846;2023-02-04T06:05:38;11.27;;;3.43;;
50585;SDS011;36542;51.700;8.846;2023-02-04T06:08:04;18.87;;;3.13;;
50585;SDS011;36542;51.700;8.846;2023-02-04T06:10:29;7.10;;;2.67;;
50585;SDS011;36542;51.700;8.846;2023-02-04T06:12:55;19.30;;;3.40;;
50585;SDS011;36542;51.700;8.846;2023-02-04T06:15:20;15.00;;;3.77;;
50585;SDS011;36542;51.700;8.846;2023-02-04T06:17:46;13.93;;;3.40;;
50585;SDS011;36542;51.700;8.846;2023-02-04T06:20:12;14.50;;;3.67;;
50585;SDS011;36542;51.700;8.846;2023-02-04T06:22:38;14.30;;;3.07;;
50585;SDS011;36542;51.700;8.846;2023-02-04T06:25:04;19.40;;;3.97;;
50585;SDS011;36542;51.700;8.846;2023-02-04T06:27:30;11.00;;;3.73;;
50585;SDS011;36542;51.700;8.846;2023-02-04T06:29:55;13.50;;;3.23;;
50585;SDS011;36542;51.700;8.846;2023-02-04T06:32:21;18.37;;;4.00;;
50585;SDS011;36542;51.700;8.846;2023-02-04T06:34:47;21.20;;;4.67;;
50585;SDS011;36542;51.700;8.846;2023-02-04T06:37:12;19.37;;;4.27;;
50585;SDS011;36542;51.700;8.846;2023-02-04T06:39:39;14.40;;;4.07;;
50585;SDS011;36542;51.700;8.846;2023-02-04T06:42:05;19.33;;;4.60;;
50585;SDS011;36542;51.700;8.846;2023-02-04T06:44:30;17.23;;;5.87;;
50585;SDS011;36542;51.700;8.846;2023-02-04T06:46:56;16.30;;;8.00;;
50585;SDS011;36542;51.700;8.846;2023-02-04T06:49:21;18.67;;;5.27;;
50585;SDS011;36542;51.700;8.846;2023-02-04T06:51:49;16.17;;;5.70;;
50585;SDS011;36542;51.700;8.846;2023-02-04T06:54:14;17.13;;;6.50;;
50585;SDS011;36542;51.700;8.846;2023-02-04T06:56:40;14.60;;;5.70;;
50585;SDS011;36542;51.700;8.846;2023-02-04T06:59:07;20.97;;;6.03;;
50585;SDS011;36542;51.700;8.846;2023-02-04T07:01:33;20.07;;;5.43;;
50585;SDS011;36542;51.700;8.846;2023-02-04T07:03:58;18.97;;;5.97;;
50585;SDS011;36542;51.700;8.846;2023-02-04T07:06:24;19.20;;;5.60;;
50585;SDS011;36542;51.700;8.846;2023-02-04T07:08:49;16.73;;;4.50;;
50585;SDS011;36542;51.700;8.846;2023-02-04T07:11:15;12.80;;;5.00;;
50585;SDS011;36542;51.700;8.846;2023-02-04T07:13:40;11.53;;;5.27;;
50585;SDS011;36542;51.700;8.846;2023-02-04T07:16:06;13.83;;;5.17;;
50585;SDS011;36542;51.700;8.846;2023-02-04T07:18:32;11.73;;;4.70;;
50585;SDS011;36542;51.700;8.846;2023-02-04T07:20:57;15.10;;;5.30;;
50585;SDS011;36542;51.700;8.846;2023-02-04T07:23:23;14.63;;;5.37;;
50585;SDS011;36542;51.700;8.846;2023-02-04T07:25:49;9.47;;;5.00;;
50585;SDS011;36542;51.700;8.846;2023-02-04T07:28:17;11.23;;;4.80;;
50585;SDS011;36542;51.700;8.846;2023-02-04T07:30:43;13.70;;;5.57;;
50585;SDS011;36542;51.700;8.846;2023-02-04T07:33:08;19.03;;;4.43;;
50585;SDS011;36542;51.700;8.846;2023-02-04T07:35:34;9.60;;;3.60;;
50585;SDS011;36542;51.700;8.846;2023-02-04T07:38:01;10.23;;;3.80;;
50585;SDS011;36542;51.700;8.846;2023-02-04T07:40:27;10.37;;;3.63;;
50585;SDS011;36542;51.700;8.846;2023-02-04T07:42:53;10.30;;;3.60;;
50585;SDS011;36542;51.700;8.846;2023-02-04T07:45:18;12.40;;;3.63;;
50585;SDS011;36542;51.700;8.846;2023-02-04T07:47:44;11.17;;;3.80;;
50585;SDS011;36542;51.700;8.846;2023-02-04T07:50:09;10.20;;;4.37;;
50585;SDS011;36542;51.700;8.846;2023-02-04T07:52:35;12.70;;;6.07;;
50585;SDS011;36542;51.700;8.846;2023-02-04T07:55:01;17.00;;;6.37;;
50585;SDS011;36542;51.700;8.846;2023-02-04T07:57:26;14.13;;;3.93;;
50585;SDS011;36542;51.700;8.846;2023-02-04T07:59:53;13.57;;;3.77;;
50585;SDS011;36542;51.700;8.846;2023-02-04T08:02:18;11.43;;;4.37;;
50585;SDS011;36542;51.700;8.846;2023-02-04T08:04:44;6.70;;;5.20;;
50585;SDS011;36542;51.700;8.846;2023-02-04T08:07:09;8.63;;;4.30;;
50585;SDS011;36542;51.700;8.846;2023-02-04T08:09:35;5.87;;;4.67;;
50585;SDS011;36542;51.700;8.846;2023-02-04T08:12:00;5.83;;;3.60;;
50585;SDS011;36542;51.700;8.846;2023-02-04T08:14:26;5.40;;;3.23;;
50585;SDS011;36542;51.700;8.846;2023-02-04T08:16:51;9.40;;;3.97;;
50585;SDS011;36542;51.700;8.846;2023-02-04T08:19:17;7.13;;;3.13;;
50585;SDS011;36542;51.700;8.846;2023-02-04T08:21:44;11.10;;;3.30;;
50585;SDS011;36542;51.700;8.846;2023-02-04T08:24:11;9.63;;;3.10;;
50585;SDS011;36542;51.700;8.846;2023-02-04T08:26:38;6.63;;;3.10;;
50585;SDS011;36542;51.700;8.846;2023-02-04T08:29:03;5.47;;;2.80;;
50585;SDS011;36542;51.700;8.846;2023-02-04T08:31:29;6.30;;;2.83;;
50585;SDS011;36542;51.700;8.846;2023-02-04T08:33:54;6.83;;;2.90;;
50585;SDS011;36542;51.700;8.846;2023-02-04T08:36:20;5.30;;;2.30;;
50585;SDS011;36542;51.700;8.846;2023-02-04T08:38:45;5.53;;;3.00;;
50585;SDS011;36542;51.700;8.846;2023-02-04T08:41:11;5.03;;;2.77;;
50585;SDS011;36542;51.700;8.846;2023-02-04T08:43:36;6.07;;;2.50;;
50585;SDS011;36542;51.700;8.846;2023-02-04T08:46:02;5.13;;;2.67;;
50585;SDS011;36542;51.700;8.846;2023-02-04T08:48:27;4.63;;;2.60;;
50585;SDS011;36542;51.700;8.846;2023-02-04T08:50:53;4.73;;;2.20;;
50585;SDS011;36542;51.700;8.846;2023-02-04T08:53:18;3.20;;;1.70;;
50585;SDS011;36542;51.700;8.846;2023-02-04T08:55:44;3.90;;;2.00;;
50585;SDS011;36542;51.700;8.846;2023-02-04T08:58:09;2.57;;;1.47;;
50585;SDS011;36542;51.700;8.846;2023-02-04T09:00:35;4.03;;;1.87;;
50585;SDS011;36542;51.700;8.846;2023-02-04T09:03:00;2.33;;;1.90;;
50585;SDS011;36542;51.700;8.846;2023-02-04T09:05:26;4.10;;;1.80;;
50585;SDS011;36542;51.700;8.846;2023-02-04T09:07:51;4.77;;;2.93;;
50585;SDS011;36542;51.700;8.846;2023-02-04T09:10:18;3.03;;;1.90;;
50585;SDS011;36542;51.700;8.846;2023-02-04T09:12:43;3.43;;;2.03;;
50585;SDS011;36542;51.700;8.846;2023-02-04T09:15:10;4.60;;;3.40;;
50585;SDS011;36542;51.700;8.846;2023-02-04T09:17:35;21.90;;;14.97;;
50585;SDS011;36542;51.700;8.846;2023-02-04T09:20:02;27.30;;;19.60;;
50585;SDS011;36542;51.700;8.846;2023-02-04T09:22:29;5.87;;;3.03;;
50585;SDS011;36542;51.700;8.846;2023-02-04T09:24:54;7.50;;;2.90;;
50585;SDS011;36542;51.700;8.846;2023-02-04T09:27:20;7.47;;;5.90;;
50585;SDS011;36542;51.700;8.846;2023-02-04T09:29:45;12.23;;;8.23;;
50585;SDS011;36542;51.700;8.846;2023-02-04T09:32:11;3.67;;;2.83;;
50585;SDS011;36542;51.700;8.846;2023-02-04T09:34:36;4.87;;;2.60;;
50585;SDS011;36542;51.700;8.846;2023-02-04T09:37:02;5.43;;;2.40;;
50585;SDS011;36542;51.700;8.846;2023-02-04T09:39:27;3.57;;;2.40;;
50585;SDS011;36542;51.700;8.846;2023-02-04T09:41:53;4.07;;;2.37;;
50585;SDS011;36542;51.700;8.846;2023-02-04T09:44:19;5.20;;;2.67;;
50585;SDS011;36542;51.700;8.846;2023-02-04T09:46:47;4.03;;;2.40;;
50585;SDS011;36542;51.700;8.846;2023-02-04T09:49:16;5.97;;;2.43;;
50585;SDS011;36542;51.700;8.846;2023-02-04T09:51:41;5.43;;;2.23;;
50585;SDS011;36542;51.700;8.846;2023-02-04T09:54:12;1.73;;;1.63;;
50585;SDS011;36542;51.700;8.846;2023-02-04T09:56:40;3.60;;;2.27;;
50585;SDS011;36542;51.700;8.846;2023-02-04T09:59:10;2.73;;;1.90;;
50585;SDS011;36542;51.700;8.846;2023-02-04T10:01:37;3.20;;;1.90;;
50585;SDS011;36542;51.700;8.846;2023-02-04T10:04:03;2.63;;;1.67;;
50585;SDS011;36542;51.700;8.846;2023-02-04T10:06:29;7.67;;;5.43;;
50585;SDS011;36542;51.700;8.846;2023-02-04T10:08:55;7.23;;;4.77;;
50585;SDS011;36542;51.700;8.846;2023-02-04T10:11:21;3.17;;;2.50;;
50585;SDS011;36542;51.700;8.846;2023-02-04T10:13:49;2.47;;;2.00;;
50585;SDS011;36542;51.700;8.846;2023-02-04T10:16:27;3.53;;;2.40;;
50585;SDS011;36542;51.700;8.846;2023-02-04T10:18:59;1.77;;;1.67;;
50585;SDS011;36542;51.700;8.846;2023-02-04T10:21:28;1.87;;;1.60;;
50585;SDS011;36542;51.700;8.846;2023-02-04T10:23:57;1.57;;;1.47;;
50585;SDS011;36542;51.700;8.846;2023-02-04T10:26:25;2.13;;;1.63;;
50585;SDS011;36542;51.700;8.846;2023-02-04T10:29:00;1.70;;;1.60;;
50585;SDS011;36542;51.700;8.846;2023-02-04T10:31:28;2.30;;;2.10;;
50585;SDS011;36542;51.700;8.846;2023-02-04T10:34:03;2.10;;;1.53;;
50585;SDS011;36542;51.700;8.846;2023-02-04T10:36:29;1.90;;;1.63;;
50585;SDS011;36542;51.700;8.846;2023-02-04T10:38:58;1.63;;;1.53;;
50585;SDS011;36542;51.700;8.846;2023-02-04T10:41:51;1.70;;;1.50;;
50585;SDS011;36542;51.700;8.846;2023-02-04T10:47:00;3.80;;;2.93;;
50585;SDS011;36542;51.700;8.846;2023-02-04T10:49:27;3.10;;;2.00;;
50585;SDS011;36542;51.700;8.846;2023-02-04T10:51:53;2.00;;;1.43;;
50585;SDS011;36542;51.700;8.846;2023-02-04T10:54:19;1.73;;;1.60;;
50585;SDS011;36542;51.700;8.846;2023-02-04T10:56:58;2.63;;;1.80;;
50585;SDS011;36542;51.700;8.846;2023-02-04T10:59:28;1.70;;;1.50;;
50585;SDS011;36542;51.700;8.846;2023-02-04T11:01:55;1.57;;;1.33;;
50585;SDS011;36542;51.700;8.846;2023-02-04T11:04:22;1.93;;;1.70;;
50585;SDS011;36542;51.700;8.846;2023-02-04T11:06:49;1.60;;;1.50;;
50585;SDS011;36542;51.700;8.846;2023-02-04T11:09:15;2.23;;;2.03;;
50585;SDS011;36542;51.700;8.846;2023-02-04T11:11:44;4.53;;;2.90;;
50585;SDS011;36542;51.700;8.846;2023-02-04T11:14:22;4.47;;;2.60;;
50585;SDS011;36542;51.700;8.846;2023-02-04T11:16:54;2.20;;;1.40;;
50585;SDS011;36542;51.700;8.846;2023-02-04T11:19:32;4.40;;;2.53;;
50585;SDS011;36542;51.700;8.846;2023-02-04T11:22:06;2.43;;;2.13;;
50585;SDS011;36542;51.700;8.846;2023-02-04T11:24:44;4.90;;;3.60;;
50585;SDS011;36542;51.700;8.846;2023-02-04T11:27:35;14.63;;;8.67;;
50585;SDS011;36542;51.700;8.846;2023-02-04T11:30:03;4.47;;;2.70;;
50585;SDS011;36542;51.700;8.846;2023-02-04T11:32:31;8.87;;;5.87;;
50585;SDS011;36542;51.700;8.846;2023-02-04T11:35:21;4.07;;;2.60;;
50585;SDS011;36542;51.700;8.846;2023-02-04T11:37:49;2.67;;;1.53;;
50585;SDS011;36542;51.700;8.846;2023-02-04T11:40:36;2.40;;;1.70;;
50585;SDS011;36542;51.700;8.846;2023-02-04T11:43:08;3.47;;;2.93;;
50585;SDS011;36542;51.700;8.846;2023-02-04T11:45:35;2.60;;;2.40;;
50585;SDS011;36542;51.700;8.846;2023-02-04T11:48:02;4.17;;;2.50;;
50585;SDS011;36542;51.700;8.846;2023-02-04T11:50:36;3.63;;;2.00;;
50585;SDS011;36542;51.700;8.846;2023-02-04T11:53:02;3.53;;;2.70;;
50585;SDS011;36542;51.700;8.846;2023-02-04T11:55:29;3.53;;;2.47;;
50585;SDS011;36542;51.700;8.846;2023-02-04T11:57:58;2.30;;;2.10;;
50585;SDS011;36542;51.700;8.846;2023-02-04T12:00:31;2.93;;;2.30;;
50585;SDS011;36542;51.700;8.846;2023-02-04T12:02:58;4.10;;;3.03;;
50585;SDS011;36542;51.700;8.846;2023-02-04T12:05:35;2.80;;;2.60;;
50585;SDS011;36542;51.700;8.846;2023-02-04T12:08:09;3.20;;;2.53;;
50585;SDS011;36542;51.700;8.846;2023-02-04T12:10:36;4.53;;;2.90;;
50585;SDS011;36542;51.700;8.846;2023-02-04T12:13:10;4.20;;;2.57;;
50585;SDS011;36542;51.700;8.846;2023-02-04T12:15:37;3.27;;;2.97;;
50585;SDS011;36542;51.700;8.846;2023-02-04T12:18:07;3.00;;;2.70;;
50585;SDS011;36542;51.700;8.846;2023-02-04T12:20:34;3.83;;;2.17;;
50585;SDS011;36542;51.700;8.846;2023-02-04T12:23:01;2.83;;;2.50;;
50585;SDS011;36542;51.700;8.846;2023-02-04T12:25:26;4.70;;;2.60;;
50585;SDS011;36542;51.700;8.846;2023-02-04T12:27:52;2.40;;;2.00;;
50585;SDS011;36542;51.700;8.846;2023-02-04T12:30:19;3.87;;;3.13;;
50585;SDS011;36542;51.700;8.846;2023-02-04T12:32:50;1.93;;;1.80;;
50585;SDS011;36542;51.700;8.846;2023-02-04T12:35:15;3.07;;;1.77;;
50585;SDS011;36542;51.700;8.846;2023-02-04T12:37:41;2.23;;;1.83;;
50585;SDS011;36542;51.700;8.846;2023-02-04T12:40:07;2.33;;;2.13;;
50585;SDS011;36542;51.700;8.846;2023-02-04T12:42:37;4.30;;;2.10;;
50585;SDS011;36542;51.700;8.846;2023-02-04T12:45:03;2.70;;;1.70;;
50585;SDS011;36542;51.700;8.846;2023-02-04T12:47:28;3.47;;;1.80;;
50585;SDS011;36542;51.700;8.846;2023-02-04T12:49:54;3.80;;;2.50;;
50585;SDS011;36542;51.700;8.846;2023-02-04T12:52:19;4.83;;;1.90;;
50585;SDS011;36542;51.700;8.846;2023-02-04T12:54:45;3.67;;;2.30;;
50585;SDS011;36542;51.700;8.846;2023-02-04T12:57:10;6.17;;;2.10;;
50585;SDS011;36542;51.700;8.846;2023-02-04T12:59:38;4.20;;;1.97;;
50585;SDS011;36542;51.700;8.846;2023-02-04T13:02:03;2.60;;;1.93;;
50585;SDS011;36542;51.700;8.846;2023-02-04T13:04:29;3.33;;;1.87;;
50585;SDS011;36542;51.700;8.846;2023-02-04T13:06:54;3.87;;;1.90;;
50585;SDS011;36542;51.700;8.846;2023-02-04T13:09:20;2.07;;;1.80;;
50585;SDS011;36542;51.700;8.846;2023-02-04T13:11:45;2.03;;;1.83;;
50585;SDS011;36542;51.700;8.846;2023-02-04T13:14:11;4.60;;;2.80;;
50585;SDS011;36542;51.700;8.846;2023-02-04T13:16:36;3.27;;;1.90;;
50585;SDS011;36542;51.700;8.846;2023-02-04T13:19:02;3.33;;;2.00;;
50585;SDS011;36542;51.700;8.846;2023-02-04T13:21:27;2.67;;;1.70;;
50585;SDS011;36542;51.700;8.846;2023-02-04T13:23:53;3.17;;;1.60;;
50585;SDS011;36542;51.700;8.846;2023-02-04T13:26:18;1.90;;;1.70;;
50585;SDS011;36542;51.700;8.846;2023-02-04T13:28:44;3.80;;;1.50;;
50585;SDS011;36542;51.700;8.846;2023-02-04T13:31:09;1.70;;;1.60;;
50585;SDS011;36542;51.700;8.846;2023-02-04T13:33:34;2.10;;;1.90;;
50585;SDS011;36542;51.700;8.846;2023-02-04T13:36:00;5.97;;;3.60;;
50585;SDS011;36542;51.700;8.846;2023-02-04T13:38:26;19.13;;;10.50;;
50585;SDS011;36542;51.700;8.846;2023-02-04T13:40:51;2.13;;;1.90;;
50585;SDS011;36542;51.700;8.846;2023-02-04T13:43:16;2.13;;;1.70;;
50585;SDS011;36542;51.700;8.846;2023-02-04T13:45:43;3.20;;;1.93;;
50585;SDS011;36542;51.700;8.846;2023-02-04T13:48:11;2.50;;;2.13;;
50585;SDS011;36542;51.700;8.846;2023-02-04T13:50:37;3.80;;;2.13;;
50585;SDS011;36542;51.700;8.846;2023-02-04T13:53:03;2.87;;;2.03;;
50585;SDS011;36542;51.700;8.846;2023-02-04T13:55:28;3.47;;;2.10;;
50585;SDS011;36542;51.700;8.846;2023-02-04T13:57:54;2.40;;;2.20;;
50585;SDS011;36542;51.700;8.846;2023-02-04T14:00:19;2.30;;;1.90;;
50585;SDS011;36542;51.700;8.846;2023-02-04T14:02:45;2.20;;;1.93;;
50585;SDS011;36542;51.700;8.846;2023-02-04T14:05:12;3.03;;;2.37;;
50585;SDS011;36542;51.700;8.846;2023-02-04T14:07:38;2.60;;;1.93;;
50585;SDS011;36542;51.700;8.846;2023-02-04T14:10:04;6.73;;;5.30;;
50585;SDS011;36542;51.700;8.846;2023-02-04T14:12:29;9.37;;;5.70;;
50585;SDS011;36542;51.700;8.846;2023-02-04T14:14:55;2.13;;;2.03;;
50585;SDS011;36542;51.700;8.846;2023-02-04T14:17:20;2.63;;;2.00;;
50585;SDS011;36542;51.700;8.846;2023-02-04T14:19:46;3.83;;;2.40;;
50585;SDS011;36542;51.700;8.846;2023-02-04T14:22:11;2.17;;;2.00;;
50585;SDS011;36542;51.700;8.846;2023-02-04T14:24:37;2.23;;;2.03;;
50585;SDS011;36542;51.700;8.846;2023-02-04T14:27:05;2.37;;;1.80;;
50585;SDS011;36542;51.700;8.846;2023-02-04T14:29:32;2.10;;;1.90;;
50585;SDS011;36542;51.700;8.846;2023-02-04T14:31:58;2.43;;;2.00;;
50585;SDS011;36542;51.700;8.846;2023-02-04T14:34:23;4.90;;;2.47;;
50585;SDS011;36542;51.700;8.846;2023-02-04T14:36:49;2.80;;;2.60;;
50585;SDS011;36542;51.700;8.846;2023-02-04T14:39:14;2.70;;;2.50;;
50585;SDS011;36542;51.700;8.846;2023-02-04T14:41:40;3.87;;;2.30;;